Time;durP1;ratioP1;P1;durP2;ratioP2;P2;SDS_P1;SDS_P2;PMS_P1;PMS_P2;Temp;Humidity;BMP_temperature;BMP_pressure;BME280_temperature;BME280_humidity;BME280_pressure;Samples;Min_cycle;Max_cycle;Signal;HPM_P1;HPM_P2
2022/03/11 00:00:52;;;;;;;5.38;2.88;;;-3.10;56.00;;;;;;5088326;28;20478;-61
2022/03/11 00:03:20;;;;;;;5.28;3.95;;;-3.20;55.70;;;;;;5093581;28;20024;-60
2022/03/11 00:05:45;;;;;;;4.13;3.30;;;-3.30;55.80;;;;;;5102159;28;20444;-61
2022/03/11 00:08:11;;;;;;;2.70;2.50;;;-3.20;56.00;;;;;;5111752;28;20024;-61
2022/03/11 00:10:38;;;;;;;3.97;3.40;;;-3.20;55.70;;;;;;5109680;28;20043;-61
2022/03/11 00:13:03;;;;;;;6.57;3.92;;;-3.20;56.00;;;;;;5115497;28;20482;-61
2022/03/11 00:15:29;;;;;;;3.40;3.10;;;-3.10;55.70;;;;;;5104021;28;20043;-61
2022/03/11 00:17:55;;;;;;;3.63;2.80;;;-3.10;55.40;;;;;;5106895;28;20445;-59
2022/03/11 00:20:21;;;;;;;3.40;3.10;;;-3.20;55.30;;;;;;5108444;28;20075;-61
2022/03/11 00:22:50;;;;;;;2.83;2.63;;;-3.20;55.00;;;;;;5109082;28;20495;-61
2022/03/11 00:25:16;;;;;;;4.35;3.30;;;-3.20;54.90;;;;;;5091309;28;20040;-61
2022/03/11 00:27:42;;;;;;;3.80;2.75;;;-3.20;55.70;;;;;;5094612;28;20492;-61
2022/03/11 00:30:09;;;;;;;3.20;2.90;;;-3.20;55.00;;;;;;5106202;28;20051;-61
2022/03/11 00:32:35;;;;;;;3.20;3.00;;;-3.20;55.40;;;;;;5094409;28;20548;-60
2022/03/11 00:35:00;;;;;;;3.50;3.17;;;-3.20;55.00;;;;;;5092790;28;20027;-61
2022/03/11 00:37:26;;;;;;;3.70;2.72;;;-3.10;55.00;;;;;;5107375;28;20048;-61
2022/03/11 00:39:52;;;;;;;4.00;3.10;;;-3.20;54.60;;;;;;5091988;28;20025;-61
2022/03/11 00:42:18;;;;;;;4.28;3.28;;;-3.20;54.70;;;;;;5092119;28;20038;-61
2022/03/11 00:44:44;;;;;;;3.03;2.72;;;-3.20;55.40;;;;;;5106801;28;20030;-60
2022/03/11 00:47:10;;;;;;;3.53;3.22;;;-3.20;55.30;;;;;;5100359;28;20110;-61
2022/03/11 00:49:36;;;;;;;4.85;3.00;;;-3.20;55.10;;;;;;5114981;28;20020;-61
2022/03/11 00:52:03;;;;;;;3.22;2.55;;;-3.20;55.00;;;;;;5091179;27;20035;-61
2022/03/11 00:54:28;;;;;;;6.18;3.45;;;-3.30;55.00;;;;;;5094289;28;20067;-61
2022/03/11 00:56:54;;;;;;;3.30;3.05;;;-3.20;54.80;;;;;;5108790;28;20054;-60
2022/03/11 00:59:21;;;;;;;4.28;3.25;;;-3.20;54.80;;;;;;5114958;28;20024;-61
2022/03/11 01:01:47;;;;;;;3.83;3.17;;;-3.10;54.80;;;;;;5094901;28;20042;-61
2022/03/11 01:04:13;;;;;;;4.13;2.80;;;-3.10;54.70;;;;;;5103156;28;20020;-60
2022/03/11 01:06:38;;;;;;;3.15;2.85;;;-3.20;54.40;;;;;;5102649;28;20102;-60
2022/03/11 01:09:04;;;;;;;3.35;3.05;;;-3.20;54.90;;;;;;5090211;28;20048;-61
2022/03/11 01:11:30;;;;;;;3.30;3.00;;;-3.30;54.70;;;;;;5111894;28;20037;-61
2022/03/11 01:13:56;;;;;;;4.90;3.25;;;-3.20;54.90;;;;;;5110254;28;20458;-61
2022/03/11 01:16:23;;;;;;;3.40;3.10;;;-3.20;54.40;;;;;;5092214;28;20127;-60
2022/03/11 01:18:49;;;;;;;3.85;2.97;;;-3.10;53.90;;;;;;5108193;28;20024;-61
2022/03/11 01:21:15;;;;;;;4.15;3.20;;;-3.20;54.10;;;;;;5089683;28;20025;-60
2022/03/11 01:23:41;;;;;;;2.97;2.67;;;-3.10;54.50;;;;;;5094277;28;20039;-60
2022/03/11 01:26:07;;;;;;;2.88;2.55;;;-3.10;54.50;;;;;;5089212;28;20030;-61
2022/03/11 01:28:33;;;;;;;3.78;3.20;;;-3.20;54.50;;;;;;5114441;28;20471;-61
2022/03/11 01:30:59;;;;;;;2.80;2.60;;;-3.10;54.30;;;;;;5106027;28;20085;-61
2022/03/11 01:33:25;;;;;;;3.50;3.17;;;-3.10;54.10;;;;;;5112035;28;20030;-61
2022/03/11 01:35:51;;;;;;;3.53;3.20;;;-3.10;54.50;;;;;;5087117;28;20020;-61
2022/03/11 01:38:17;;;;;;;3.45;2.70;;;-3.00;54.50;;;;;;5093294;28;20036;-61
2022/03/11 01:40:43;;;;;;;3.17;2.97;;;-3.10;54.20;;;;;;5112724;28;20024;-61
2022/03/11 01:43:16;;;;;;;3.90;3.45;;;-3.10;54.40;;;;;;5093500;28;20017;-61
2022/03/11 01:45:42;;;;;;;4.10;3.70;;;-3.10;54.10;;;;;;5078783;28;20187;-60
2022/03/11 01:48:10;;;;;;;3.20;2.90;;;-3.10;54.30;;;;;;5096695;28;20027;-60
2022/03/11 01:50:39;;;;;;;4.55;3.17;;;-3.20;53.70;;;;;;5112319;28;20020;-61
2022/03/11 01:53:10;;;;;;;5.07;3.40;;;-3.30;54.10;;;;;;5093221;28;20531;-60
2022/03/11 01:55:36;;;;;;;4.18;3.28;;;-3.30;54.50;;;;;;5096247;28;20040;-60
2022/03/11 01:58:03;;;;;;;2.67;2.47;;;-3.40;54.90;;;;;;5106838;28;20024;-61
2022/03/11 02:00:29;;;;;;;3.85;3.47;;;-3.40;54.90;;;;;;5093051;28;20106;-60
2022/03/11 02:02:55;;;;;;;3.47;3.17;;;-3.40;54.90;;;;;;5094324;28;20031;-61
2022/03/11 02:05:21;;;;;;;3.78;3.40;;;-3.40;54.70;;;;;;5106950;28;20024;-61
2022/03/11 02:07:48;;;;;;;6.75;2.90;;;-3.40;54.50;;;;;;5104288;28;20387;-61
2022/03/11 02:10:14;;;;;;;4.05;2.70;;;-3.50;54.70;;;;;;5094859;28;20035;-61
2022/03/11 02:12:39;;;;;;;3.03;2.78;;;-3.50;55.10;;;;;;5086233;28;20166;-61
2022/03/11 02:15:06;;;;;;;2.90;2.67;;;-3.50;55.50;;;;;;5088535;28;20058;-61
2022/03/11 02:17:32;;;;;;;3.75;3.40;;;-3.50;55.40;;;;;;5092355;28;20110;-61
2022/03/11 02:19:58;;;;;;;3.25;2.88;;;-3.50;55.40;;;;;;5112050;28;20111;-61
2022/03/11 02:22:25;;;;;;;4.28;3.50;;;-3.50;55.40;;;;;;5092020;28;20437;-61
2022/03/11 02:24:52;;;;;;;3.42;2.90;;;-3.40;56.20;;;;;;5091419;28;20086;-61
2022/03/11 02:27:18;;;;;;;4.65;2.85;;;-3.40;55.90;;;;;;5096064;28;20059;-61
2022/03/11 02:29:44;;;;;;;4.47;3.45;;;-3.50;55.80;;;;;;5104531;28;20023;-61
2022/03/11 02:32:09;;;;;;;3.67;3.13;;;-3.40;55.60;;;;;;5107205;28;20063;-60
2022/03/11 02:34:38;;;;;;;3.92;3.08;;;-3.40;55.10;;;;;;5082980;28;20099;-60
2022/03/11 02:37:05;;;;;;;4.20;2.70;;;-3.40;55.10;;;;;;5099476;28;20499;-61
2022/03/11 02:39:31;;;;;;;3.40;2.70;;;-3.50;55.20;;;;;;5095076;28;20024;-61
2022/03/11 02:41:58;;;;;;;3.47;3.20;;;-3.50;55.20;;;;;;5106176;28;20016;-61
2022/03/11 02:44:24;;;;;;;4.38;3.70;;;-3.60;55.50;;;;;;5111010;28;20019;-61
2022/03/11 02:46:51;;;;;;;4.47;3.40;;;-3.50;55.30;;;;;;5090573;28;20492;-61
2022/03/11 02:49:16;;;;;;;3.72;3.42;;;-3.40;55.00;;;;;;5079616;28;20032;-60
2022/03/11 02:51:42;;;;;;;3.53;3.28;;;-3.40;54.90;;;;;;5086364;28;20077;-61
2022/03/11 02:54:08;;;;;;;3.70;2.95;;;-3.40;54.90;;;;;;5087994;28;20028;-61
2022/03/11 02:56:34;;;;;;;3.90;3.50;;;-3.50;54.90;;;;;;5078835;28;20033;-61
2022/03/11 02:58:59;;;;;;;3.55;3.15;;;-3.50;55.30;;;;;;5109800;28;20051;-61
2022/03/11 03:01:25;;;;;;;4.18;3.45;;;-3.50;54.80;;;;;;5113021;28;20028;-61
2022/03/11 03:03:51;;;;;;;3.22;2.92;;;-3.40;54.80;;;;;;5108794;28;20037;-60
2022/03/11 03:06:17;;;;;;;4.28;3.10;;;-3.40;55.00;;;;;;5088371;28;20036;-60
2022/03/11 03:08:42;;;;;;;3.75;3.45;;;-3.40;55.20;;;;;;5102186;28;20467;-61
2022/03/11 03:11:08;;;;;;;4.90;2.60;;;-3.40;55.20;;;;;;5087129;28;20041;-61
2022/03/11 03:13:34;;;;;;;3.78;3.40;;;-3.40;54.90;;;;;;5102918;28;20031;-60
2022/03/11 03:16:00;;;;;;;3.20;2.80;;;-3.40;55.10;;;;;;5096882;28;20033;-60
2022/03/11 03:18:26;;;;;;;3.10;2.80;;;-3.40;54.60;;;;;;5077193;28;20029;-60
2022/03/11 03:20:51;;;;;;;3.33;2.83;;;-3.40;54.70;;;;;;5081144;28;20070;-60
2022/03/11 03:23:17;;;;;;;4.95;3.10;;;-3.50;54.90;;;;;;5104377;28;20487;-61
2022/03/11 03:25:43;;;;;;;2.97;2.60;;;-3.50;55.20;;;;;;5090481;28;20031;-61
2022/03/11 03:28:09;;;;;;;4.13;3.67;;;-3.50;55.00;;;;;;5112793;28;20024;-61
2022/03/11 03:30:35;;;;;;;2.92;2.60;;;-3.40;55.40;;;;;;5113126;28;20467;-61
2022/03/11 03:33:01;;;;;;;4.07;3.20;;;-3.50;55.30;;;;;;5112737;28;20030;-61
2022/03/11 03:35:26;;;;;;;4.07;3.67;;;-3.40;55.10;;;;;;5094173;28;20028;-61
2022/03/11 03:37:52;;;;;;;3.72;3.30;;;-3.40;54.40;;;;;;5112385;28;20077;-60
2022/03/11 03:40:18;;;;;;;4.38;3.22;;;-3.40;54.30;;;;;;5098872;28;20060;-60
2022/03/11 03:42:47;;;;;;;7.18;3.40;;;-3.40;54.50;;;;;;5099200;28;20063;-61
2022/03/11 03:45:14;;;;;;;4.05;3.28;;;-3.40;54.30;;;;;;5093454;28;20060;-60
2022/03/11 03:47:40;;;;;;;4.78;3.67;;;-3.50;54.40;;;;;;5094403;28;20038;-60
2022/03/11 03:50:06;;;;;;;4.80;3.70;;;-3.40;54.60;;;;;;5099956;28;20383;-61
2022/03/11 03:52:33;;;;;;;4.38;2.92;;;-3.40;54.60;;;;;;5103512;28;20490;-59
2022/03/11 03:54:59;;;;;;;3.47;2.92;;;-3.50;54.90;;;;;;5096854;28;20042;-61
2022/03/11 03:57:26;;;;;;;3.30;2.70;;;-3.60;55.10;;;;;;5094282;28;20035;-61
2022/03/11 03:59:52;;;;;;;4.70;3.67;;;-3.60;55.40;;;;;;5096476;28;20028;-61
2022/03/11 04:02:18;;;;;;;5.05;3.72;;;-3.60;55.70;;;;;;5115905;28;20035;-61
2022/03/11 04:04:44;;;;;;;3.20;2.90;;;-3.60;55.90;;;;;;5108008;27;20059;-60
2022/03/11 04:07:10;;;;;;;3.90;3.33;;;-3.70;56.30;;;;;;5101178;28;20059;-60
2022/03/11 04:09:35;;;;;;;4.53;3.60;;;-3.80;56.50;;;;;;5112204;28;20577;-61
2022/03/11 04:12:02;;;;;;;4.70;3.80;;;-3.70;56.90;;;;;;5094214;28;20028;-61
2022/03/11 04:14:28;;;;;;;5.03;3.47;;;-3.70;56.90;;;;;;5093302;28;20129;-61
2022/03/11 04:16:55;;;;;;;4.53;3.33;;;-3.80;57.00;;;;;;5092379;28;20067;-61
2022/03/11 04:19:20;;;;;;;6.90;3.20;;;-3.90;57.20;;;;;;5083246;28;20392;-61
2022/03/11 04:21:46;;;;;;;5.78;3.15;;;-3.90;57.60;;;;;;5098346;28;20028;-61
2022/03/11 04:24:15;;;;;;;3.42;3.05;;;-3.90;57.60;;;;;;5096494;28;20063;-61
2022/03/11 04:26:43;;;;;;;4.45;3.85;;;-4.00;58.00;;;;;;5085251;28;20024;-60
2022/03/11 04:29:09;;;;;;;2.83;2.63;;;-3.90;58.40;;;;;;5082118;28;20088;-60
2022/03/11 04:31:35;;;;;;;4.53;3.20;;;-3.90;58.40;;;;;;5107831;28;20059;-61
2022/03/11 04:34:02;;;;;;;4.50;3.40;;;-4.00;58.40;;;;;;5096859;28;20424;-60
2022/03/11 04:36:29;;;;;;;3.95;3.65;;;-4.00;58.70;;;;;;5088797;28;20443;-60
2022/03/11 04:38:55;;;;;;;4.15;3.50;;;-3.90;59.10;;;;;;5100858;28;20032;-61
2022/03/11 04:41:21;;;;;;;6.38;3.88;;;-3.90;59.50;;;;;;5094001;28;20480;-60
2022/03/11 04:43:47;;;;;;;4.38;3.97;;;-3.90;60.20;;;;;;5094560;28;20483;-60
2022/03/11 04:46:13;;;;;;;4.35;3.95;;;-3.90;60.80;;;;;;5090046;28;20124;-61
2022/03/11 04:48:41;;;;;;;4.50;3.72;;;-3.90;61.40;;;;;;5087536;28;20070;-60
2022/03/11 04:51:06;;;;;;;4.93;3.35;;;-4.00;61.50;;;;;;5093296;28;20036;-61
2022/03/11 04:53:32;;;;;;;5.78;4.30;;;-4.10;61.30;;;;;;5098157;28;20388;-61
2022/03/11 04:55:58;;;;;;;7.10;4.60;;;-4.10;62.00;;;;;;5099716;28;20036;-61
2022/03/11 04:58:24;;;;;;;6.40;3.78;;;-4.10;62.30;;;;;;5104320;28;20024;-61
2022/03/11 05:00:50;;;;;;;4.95;4.00;;;-4.10;61.70;;;;;;5092714;28;20085;-61
2022/03/11 05:03:15;;;;;;;4.35;3.33;;;-4.10;62.20;;;;;;5080291;28;20032;-61
2022/03/11 05:05:41;;;;;;;6.45;4.07;;;-4.20;62.20;;;;;;5100290;28;20392;-60
2022/03/11 05:08:07;;;;;;;7.60;4.53;;;-4.20;62.60;;;;;;5097741;28;20031;-60
2022/03/11 05:10:33;;;;;;;5.93;4.97;;;-4.10;63.10;;;;;;5082469;28;20032;-61
2022/03/11 05:12:59;;;;;;;4.63;4.20;;;-4.20;62.80;;;;;;5088843;28;20027;-60
2022/03/11 05:15:24;;;;;;;9.82;4.80;;;-4.10;63.00;;;;;;5099228;28;20036;-61
2022/03/11 05:17:51;;;;;;;4.03;3.00;;;-4.10;63.40;;;;;;5091234;28;20078;-60
2022/03/11 05:20:17;;;;;;;4.32;3.90;;;-4.10;62.80;;;;;;5102765;28;20020;-60
2022/03/11 05:22:43;;;;;;;5.32;3.25;;;-4.10;63.20;;;;;;5087288;28;20020;-61
2022/03/11 05:25:10;;;;;;;6.38;3.80;;;-4.10;63.10;;;;;;5090225;28;20024;-61
2022/03/11 05:27:37;;;;;;;4.20;3.15;;;-4.10;62.70;;;;;;5089077;28;20063;-61
2022/03/11 05:30:07;;;;;;;6.05;4.15;;;-4.10;62.80;;;;;;5102552;28;20479;-61
2022/03/11 05:32:38;;;;;;;6.65;3.58;;;-4.00;63.10;;;;;;5087745;28;20046;-61
2022/03/11 05:35:05;;;;;;;9.00;4.00;;;-4.00;63.00;;;;;;5114184;28;20028;-61
2022/03/11 05:37:30;;;;;;;4.03;3.58;;;-4.00;63.10;;;;;;5099214;28;20082;-60
2022/03/11 05:39:56;;;;;;;5.97;4.30;;;-4.00;63.20;;;;;;5088999;28;20055;-61
2022/03/11 05:42:22;;;;;;;5.55;3.97;;;-3.90;63.70;;;;;;5094815;28;20028;-60
2022/03/11 05:44:47;;;;;;;12.32;3.55;;;-3.90;63.50;;;;;;5107595;28;20028;-60
2022/03/11 05:47:13;;;;;;;6.80;4.32;;;-3.90;63.30;;;;;;5089989;28;20067;-61
2022/03/11 05:49:39;;;;;;;6.78;3.60;;;-3.90;63.50;;;;;;5079957;28;20043;-61
2022/03/11 05:52:05;;;;;;;6.75;4.43;;;-3.90;63.60;;;;;;5090274;28;20111;-60
2022/03/11 05:54:30;;;;;;;4.93;4.05;;;-3.90;63.70;;;;;;5097258;28;20086;-60
2022/03/11 05:56:56;;;;;;;5.00;3.38;;;-3.90;63.60;;;;;;5093496;28;20027;-60
2022/03/11 05:59:22;;;;;;;6.55;4.47;;;-3.90;64.10;;;;;;5082901;28;20109;-60
2022/03/11 06:01:48;;;;;;;5.18;3.30;;;-3.80;64.50;;;;;;5081492;28;20031;-60
2022/03/11 06:04:14;;;;;;;4.13;3.40;;;-3.80;64.50;;;;;;5093632;28;20178;-60
2022/03/11 06:06:39;;;;;;;6.50;4.90;;;-3.90;64.80;;;;;;5086731;28;20032;-62
2022/03/11 06:09:08;;;;;;;5.32;3.75;;;-3.80;65.60;;;;;;5085150;28;20020;-60
2022/03/11 06:11:34;;;;;;;5.45;4.13;;;-3.80;65.90;;;;;;5072639;28;20135;-61
2022/03/11 06:14:00;;;;;;;5.93;4.00;;;-3.80;66.30;;;;;;5079555;28;20024;-62
2022/03/11 06:16:26;;;;;;;7.43;5.07;;;-3.90;65.80;;;;;;5090862;28;20399;-59
2022/03/11 06:18:52;;;;;;;6.35;5.55;;;-3.90;66.20;;;;;;5096462;28;20051;-60
2022/03/11 06:21:17;;;;;;;4.70;3.80;;;-3.90;66.80;;;;;;5088926;28;20516;-60
2022/03/11 06:23:43;;;;;;;5.47;4.80;;;-4.00;67.10;;;;;;5084226;28;20027;-61
2022/03/11 06:26:09;;;;;;;6.93;4.13;;;-4.00;67.30;;;;;;5088593;28;20032;-61
2022/03/11 06:28:35;;;;;;;7.82;3.97;;;-4.00;67.60;;;;;;5086375;28;20395;-61
2022/03/11 06:31:01;;;;;;;6.30;4.63;;;-4.00;67.60;;;;;;5087292;28;20030;-60
2022/03/11 06:33:26;;;;;;;5.80;4.85;;;-3.90;68.30;;;;;;5104492;28;20426;-61
2022/03/11 06:35:52;;;;;;;6.55;4.03;;;-3.80;68.80;;;;;;5084367;28;20104;-61
2022/03/11 06:38:19;;;;;;;8.40;5.40;;;-3.80;68.60;;;;;;5078744;28;20047;-61
2022/03/11 06:40:44;;;;;;;5.15;3.70;;;-3.70;68.90;;;;;;5091829;28;20775;-61
2022/03/11 06:43:11;;;;;;;6.07;4.97;;;-3.70;68.90;;;;;;5079346;28;20027;-61
2022/03/11 06:45:37;;;;;;;6.05;3.80;;;-3.70;68.50;;;;;;5087681;28;20074;-60
2022/03/11 06:48:03;;;;;;;6.63;3.95;;;-3.80;68.10;;;;;;5084555;28;20445;-61
2022/03/11 06:50:28;;;;;;;6.60;4.70;;;-3.90;68.10;;;;;;5091062;28;20400;-61
2022/03/11 06:52:54;;;;;;;4.90;3.65;;;-3.80;68.20;;;;;;5084875;28;20472;-60
2022/03/11 06:55:20;;;;;;;5.32;3.55;;;-3.90;68.00;;;;;;5083807;28;20392;-59
2022/03/11 06:57:46;;;;;;;8.27;5.10;;;-4.00;68.00;;;;;;5075582;28;20072;-60
2022/03/11 07:00:13;;;;;;;5.10;3.72;;;-4.00;68.40;;;;;;5075680;28;20111;-60
2022/03/11 07:02:39;;;;;;;9.38;3.78;;;-4.00;68.60;;;;;;5083990;28;20040;-60
2022/03/11 07:05:07;;;;;;;9.45;5.25;;;-4.00;68.70;;;;;;5081906;28;20028;-61
2022/03/11 07:07:33;;;;;;;5.18;4.50;;;-4.10;68.70;;;;;;5083886;28;20016;-60
2022/03/11 07:10:04;;;;;;;3.50;3.20;;;-4.10;69.40;;;;;;5077083;28;20067;-59
2022/03/11 07:12:31;;;;;;;5.47;4.40;;;-4.10;69.30;;;;;;5074530;28;20111;-60
2022/03/11 07:15:00;;;;;;;5.55;3.50;;;-4.00;69.80;;;;;;5081431;28;20649;-60
2022/03/11 07:17:26;;;;;;;5.05;3.35;;;-4.10;69.90;;;;;;5079631;28;20048;-63
2022/03/11 07:19:52;;;;;;;4.28;3.38;;;-4.10;70.00;;;;;;5075752;28;20043;-63
2022/03/11 07:22:17;;;;;;;5.78;4.47;;;-4.10;70.10;;;;;;5085105;28;20530;-63
2022/03/11 07:24:44;;;;;;;5.22;4.72;;;-4.00;70.20;;;;;;5083536;28;20488;-65
2022/03/11 07:27:13;;;;;;;7.93;3.92;;;-3.90;69.80;;;;;;5084664;28;20055;-65
2022/03/11 07:29:40;;;;;;;4.93;4.40;;;-4.00;69.60;;;;;;5083021;28;20396;-64
2022/03/11 07:32:08;;;;;;;6.13;4.57;;;-3.90;70.30;;;;;;5084641;28;20030;-64
2022/03/11 07:34:34;;;;;;;7.45;4.95;;;-3.80;70.50;;;;;;5089018;28;20387;-64
2022/03/11 07:37:00;;;;;;;7.45;4.93;;;-3.80;70.10;;;;;;5094818;28;20041;-64
2022/03/11 07:39:25;;;;;;;5.63;4.82;;;-3.80;69.60;;;;;;5081719;28;20419;-64
2022/03/11 07:41:51;;;;;;;5.78;4.18;;;-3.80;69.40;;;;;;5082452;28;20029;-64
2022/03/11 07:44:17;;;;;;;5.18;3.55;;;-3.90;69.60;;;;;;5086432;28;20480;-65
2022/03/11 07:46:44;;;;;;;7.35;4.75;;;-3.90;69.90;;;;;;5072689;28;20059;-64
2022/03/11 07:49:11;;;;;;;5.38;3.50;;;-3.80;69.80;;;;;;5075811;28;20017;-64
2022/03/11 07:51:37;;;;;;;5.70;5.10;;;-3.80;68.40;;;;;;5079124;28;20051;-63
2022/03/11 07:54:03;;;;;;;5.82;4.10;;;-3.70;68.20;;;;;;5087612;28;20047;-64
2022/03/11 07:56:29;;;;;;;5.65;4.20;;;-3.80;67.80;;;;;;5086023;28;20024;-64
2022/03/11 07:58:56;;;;;;;6.47;3.80;;;-3.80;67.60;;;;;;5084352;28;20042;-64
2022/03/11 08:01:22;;;;;;;5.72;4.00;;;-3.90;67.50;;;;;;5078117;28;20024;-64
2022/03/11 08:03:48;;;;;;;4.32;3.20;;;-4.00;67.30;;;;;;5090320;28;20097;-65
2022/03/11 08:06:14;;;;;;;3.58;3.25;;;-4.00;67.60;;;;;;5086136;28;20064;-64
2022/03/11 08:08:40;;;;;;;5.20;3.60;;;-4.00;67.90;;;;;;5083908;28;20032;-64
2022/03/11 08:11:06;;;;;;;4.90;4.15;;;-4.00;67.60;;;;;;5086705;28;20534;-64
2022/03/11 08:13:36;;;;;;;5.90;3.63;;;-3.80;67.60;;;;;;5086537;28;20434;-62
2022/03/11 08:16:02;;;;;;;5.35;4.82;;;-3.80;67.70;;;;;;5084372;28;20099;-64
2022/03/11 08:18:29;;;;;;;5.85;3.70;;;-3.60;66.50;;;;;;5075835;28;20032;-64
2022/03/11 08:20:55;;;;;;;5.10;4.50;;;-3.60;66.10;;;;;;5078273;28;20035;-64
2022/03/11 08:23:21;;;;;;;5.40;4.65;;;-3.50;65.60;;;;;;5089092;28;20048;-63
2022/03/11 08:25:47;;;;;;;5.18;4.45;;;-3.40;65.40;;;;;;5079365;28;20027;-64
2022/03/11 08:28:13;;;;;;;6.38;3.97;;;-3.40;65.60;;;;;;5079626;28;20357;-64
2022/03/11 08:30:43;;;;;;;5.40;4.07;;;-3.40;65.20;;;;;;5080470;28;20039;-66
2022/03/11 08:33:10;;;;;;;7.07;3.70;;;-3.40;64.90;;;;;;5085100;28;20124;-64
2022/03/11 08:35:36;;;;;;;7.47;4.80;;;-3.50;65.40;;;;;;5078794;28;20404;-65
2022/03/11 08:38:05;;;;;;;6.60;5.13;;;-3.40;65.30;;;;;;5078290;28;20044;-65
2022/03/11 08:40:32;;;;;;;4.60;4.20;;;-3.30;64.90;;;;;;5079733;28;20448;-65
2022/03/11 08:42:58;;;;;;;4.55;3.20;;;-3.30;64.80;;;;;;5089915;28;20024;-65
2022/03/11 08:45:24;;;;;;;5.05;3.40;;;-3.30;64.60;;;;;;5082872;28;20039;-65
2022/03/11 08:47:51;;;;;;;4.82;4.32;;;-3.30;65.50;;;;;;5079875;28;20047;-65
2022/03/11 08:50:18;;;;;;;6.82;3.88;;;-3.20;65.40;;;;;;5089415;28;20070;-62
2022/03/11 08:52:44;;;;;;;5.65;4.00;;;-3.20;64.80;;;;;;5079563;28;20028;-61
2022/03/11 08:55:11;;;;;;;5.85;4.43;;;-3.30;64.80;;;;;;5083260;28;20363;-61
2022/03/11 08:57:37;;;;;;;7.35;3.60;;;-3.20;65.00;;;;;;5089715;28;20024;-62
2022/03/11 09:00:09;;;;;;;5.53;3.38;;;-3.20;64.50;;;;;;5075165;28;20025;-61
2022/03/11 09:02:37;;;;;;;7.00;4.38;;;-3.20;64.90;;;;;;5076850;28;20043;-61
2022/03/11 09:05:04;;;;;;;6.10;3.83;;;-3.10;64.70;;;;;;5078594;28;20050;-62
2022/03/11 09:07:32;;;;;;;6.18;4.00;;;-3.00;64.70;;;;;;5080884;28;20467;-62
2022/03/11 09:09:59;;;;;;;6.25;4.88;;;-3.00;64.50;;;;;;5075045;28;20558;-62
2022/03/11 09:12:25;;;;;;;5.97;4.63;;;-2.90;64.50;;;;;;5081061;28;20029;-62
2022/03/11 09:14:50;;;;;;;6.32;4.88;;;-2.80;63.90;;;;;;5074420;28;20036;-61
2022/03/11 09:17:16;;;;;;;7.93;3.65;;;-2.70;63.50;;;;;;5067723;28;20032;-60
2022/03/11 09:19:43;;;;;;;5.65;4.72;;;-2.70;63.50;;;;;;5077138;28;20032;-61
2022/03/11 09:22:11;;;;;;;5.45;4.57;;;-2.60;63.50;;;;;;5078845;28;20733;-60
2022/03/11 09:24:40;;;;;;;5.63;4.25;;;-2.50;63.00;;;;;;5072451;28;20533;-61
2022/03/11 09:27:06;;;;;;;6.95;4.25;;;-2.60;62.50;;;;;;5077427;28;20054;-62
2022/03/11 09:29:32;;;;;;;6.03;4.50;;;-2.60;62.70;;;;;;5066983;28;20086;-62
2022/03/11 09:31:58;;;;;;;6.75;4.70;;;-2.60;62.50;;;;;;5078269;28;20110;-62
2022/03/11 09:34:25;;;;;;;5.30;4.80;;;-2.50;62.10;;;;;;5074482;28;20084;-62
2022/03/11 09:36:52;;;;;;;8.98;4.40;;;-2.40;61.90;;;;;;5079827;28;20051;-62
2022/03/11 09:39:22;;;;;;;6.05;4.80;;;-2.50;61.70;;;;;;5075362;28;20028;-62
2022/03/11 09:41:48;;;;;;;5.60;5.03;;;-2.40;62.20;;;;;;5075846;28;20048;-62
2022/03/11 09:44:16;;;;;;;5.00;3.50;;;-2.20;62.20;;;;;;5078759;28;20027;-62
2022/03/11 09:46:43;;;;;;;5.43;4.47;;;-2.20;62.20;;;;;;5077052;28;20022;-62
2022/03/11 09:49:11;;;;;;;5.50;5.00;;;-2.10;62.30;;;;;;5074142;28;20036;-62
2022/03/11 09:51:38;;;;;;;6.15;4.85;;;-1.90;61.80;;;;;;5075783;28;20040;-62
2022/03/11 09:54:04;;;;;;;7.35;3.67;;;-1.80;61.70;;;;;;5078758;28;20024;-62
2022/03/11 09:56:30;;;;;;;5.63;5.03;;;-1.80;61.40;;;;;;5077965;28;20040;-62
2022/03/11 09:58:56;;;;;;;7.00;4.72;;;-1.80;60.60;;;;;;5074183;28;20472;-62
2022/03/11 10:01:21;;;;;;;6.05;4.18;;;-1.70;60.20;;;;;;5074873;28;20027;-62
2022/03/11 10:03:48;;;;;;;6.18;5.03;;;-1.80;59.90;;;;;;5082521;28;20028;-62
2022/03/11 10:06:13;;;;;;;5.72;4.68;;;-1.80;60.50;;;;;;5081927;28;20027;-62
2022/03/11 10:08:42;;;;;;;5.72;3.63;;;-1.70;60.80;;;;;;5075209;28;20035;-62
2022/03/11 10:11:23;;;;;;;7.55;4.78;;;-1.70;60.40;;;;;;5079113;28;20066;-62
2022/03/11 10:13:49;;;;;;;6.40;5.05;;;-1.60;60.00;;;;;;5080803;28;20028;-62
2022/03/11 10:16:21;;;;;;;5.85;4.85;;;-1.60;59.50;;;;;;5081726;28;20047;-62
2022/03/11 10:18:57;;;;;;;;;;;-1.60;59.30;;;;;;5084360;28;20028;-62
2022/03/11 10:21:32;;;;;;;6.50;4.60;;;-1.70;59.40;;;;;;5075020;28;19927;-62
2022/03/11 10:24:02;;;;;;;5.75;3.80;;;-1.60;59.80;;;;;;5082167;28;20456;-62
2022/03/11 10:26:39;;;;;;;5.03;3.92;;;-1.60;59.80;;;;;;5075697;28;20031;-62
2022/03/11 10:29:10;;;;;;;6.47;4.80;;;-1.60;60.10;;;;;;5077964;28;20040;-62
2022/03/11 10:31:43;;;;;;;4.15;3.40;;;-1.60;60.70;;;;;;5075254;28;20480;-62
2022/03/11 10:34:35;;;;;;;6.10;5.10;;;-1.60;59.40;;;;;;5079030;28;20445;-62
2022/03/11 10:37:06;;;;;;;5.78;4.55;;;-1.60;59.70;;;;;;5073934;28;21500;-62
2022/03/11 10:39:46;;;;;;;5.75;4.13;;;-1.50;59.70;;;;;;5070540;28;20107;-62
2022/03/11 10:42:12;;;;;;;5.78;4.82;;;-1.50;59.90;;;;;;5068393;28;20392;-63
2022/03/11 10:44:39;;;;;;;6.03;5.43;;;-1.40;60.00;;;;;;5072388;28;20032;-63
2022/03/11 10:47:23;;;;;;;7.63;4.95;;;-1.30;60.20;;;;;;5070290;28;20101;-63
2022/03/11 10:49:51;;;;;;;5.07;4.07;;;-1.20;60.00;;;;;;5074662;28;20036;-63
2022/03/11 10:52:32;;;;;;;6.97;4.97;;;-1.20;60.00;;;;;;5075424;28;20724;-63
2022/03/11 10:55:00;;;;;;;6.55;5.15;;;-1.10;59.70;;;;;;5078110;28;20525;-63
2022/03/11 10:57:37;;;;;;;7.03;4.70;;;-1.10;59.30;;;;;;5076557;28;20433;-64
2022/03/11 11:00:29;;;;;;;5.47;4.85;;;-1.10;59.10;;;;;;5084094;28;20019;-63
2022/03/11 11:03:06;;;;;;;6.22;5.25;;;-1.00;58.80;;;;;;5082570;28;20479;-63
2022/03/11 11:05:33;;;;;;;6.32;5.55;;;-1.00;59.20;;;;;;5077066;28;20399;-62
2022/03/11 11:08:00;;;;;;;6.60;5.22;;;-0.90;59.30;;;;;;5078625;28;20092;-62
2022/03/11 11:10:28;;;;;;;7.10;5.97;;;-0.90;58.90;;;;;;5079718;28;20028;-63
2022/03/11 11:12:54;;;;;;;6.90;5.30;;;-0.90;58.60;;;;;;5082233;28;20043;-63
2022/03/11 11:15:21;;;;;;;5.85;4.30;;;-0.90;58.60;;;;;;5085662;28;20093;-63
2022/03/11 11:17:52;;;;;;;7.15;4.22;;;-0.90;58.80;;;;;;5086204;28;20027;-63
2022/03/11 11:20:40;;;;;;;6.32;4.20;;;-1.00;59.00;;;;;;5082769;28;20028;-64
2022/03/11 11:23:08;;;;;;;7.15;5.30;;;-1.10;59.00;;;;;;5086564;28;20400;-62
2022/03/11 11:25:37;;;;;;;5.72;4.25;;;-1.00;59.10;;;;;;5083657;28;20047;-62
2022/03/11 11:28:16;;;;;;;8.60;5.53;;;-1.00;59.00;;;;;;5089645;28;20030;-63
2022/03/11 11:30:44;;;;;;;6.65;5.25;;;-1.00;58.90;;;;;;5084599;28;20031;-63
2022/03/11 11:33:11;;;;;;;6.38;5.30;;;-0.90;58.80;;;;;;5085745;28;20028;-62
2022/03/11 11:35:39;;;;;;;6.25;4.18;;;-0.90;58.70;;;;;;5080542;28;20134;-62
2022/03/11 11:38:26;;;;;;;6.63;5.65;;;-1.00;58.70;;;;;;5080467;28;20044;-62
2022/03/11 11:40:53;;;;;;;4.88;3.95;;;-1.00;58.60;;;;;;5067104;28;20508;-63
2022/03/11 11:43:26;;;;;;;8.35;5.25;;;-1.00;58.70;;;;;;5078003;28;20188;-63
2022/03/11 11:45:55;;;;;;;6.28;4.88;;;-0.90;58.80;;;;;;5079215;28;20021;-64
2022/03/11 11:48:33;;;;;;;6.78;5.82;;;-0.80;58.60;;;;;;5082875;28;20107;-64
2022/03/11 11:51:08;;;;;;;7.88;5.75;;;-0.70;58.60;;;;;;5080994;28;20039;-64
2022/03/11 11:53:34;;;;;;;7.28;4.13;;;-0.70;58.80;;;;;;5078718;28;20032;-64
2022/03/11 11:56:21;;;;;;;6.07;5.20;;;-0.80;58.70;;;;;;5079398;28;20696;-64
2022/03/11 11:58:56;;;;;;;6.65;4.53;;;-0.70;59.00;;;;;;5079987;28;20028;-64
2022/03/11 12:01:42;;;;;;;7.38;6.15;;;-0.70;59.00;;;;;;5081055;28;20027;-64
2022/03/11 12:04:29;;;;;;;7.00;5.50;;;-0.70;59.00;;;;;;5079166;28;20055;-64
2022/03/11 12:07:16;;;;;;;7.53;5.55;;;-0.60;58.60;;;;;;5079190;28;20032;-64
2022/03/11 12:09:42;;;;;;;7.05;5.95;;;-0.60;58.70;;;;;;5076741;28;20039;-64
2022/03/11 12:12:20;;;;;;;6.05;5.45;;;-0.60;58.20;;;;;;5070213;28;20484;-64
2022/03/11 12:15:03;;;;;;;8.57;4.57;;;-0.50;58.20;;;;;;5076409;28;20039;-64
2022/03/11 12:17:45;;;;;;;6.88;6.05;;;-0.60;58.30;;;;;;5070720;28;20052;-63
2022/03/11 12:20:37;;;;;;;7.28;5.72;;;-0.60;58.70;;;;;;5070830;28;20115;-64
2022/03/11 12:23:15;;;;;;;8.18;5.05;;;-0.60;58.10;;;;;;5084433;28;20020;-64
2022/03/11 12:25:48;;;;;;;5.68;5.15;;;-0.60;58.30;;;;;;5083202;28;20111;-63
2022/03/11 12:28:35;;;;;;;5.88;4.07;;;-0.50;58.70;;;;;;5080243;28;20046;-63
2022/03/11 12:31:21;;;;;;;6.57;4.18;;;-0.50;59.40;;;;;;5083349;28;20028;-65
2022/03/11 12:33:48;;;;;;;5.50;4.00;;;-0.50;58.60;;;;;;5084388;28;20052;-64
2022/03/11 12:36:21;;;;;;;5.65;4.88;;;-0.50;58.80;;;;;;5082354;28;20374;-64
2022/03/11 12:38:49;;;;;;;7.40;5.05;;;-0.40;58.90;;;;;;5080349;28;20101;-65
2022/03/11 12:41:17;;;;;;;6.22;5.25;;;-0.20;58.50;;;;;;5082750;28;20028;-64
2022/03/11 12:43:45;;;;;;;7.60;5.90;;;-0.10;58.50;;;;;;5080325;28;20403;-63
2022/03/11 12:46:11;;;;;;;6.10;4.05;;;-0.10;57.90;;;;;;5076919;28;20044;-63
2022/03/11 12:48:41;;;;;;;6.28;4.03;;;-0.10;57.90;;;;;;5083029;28;20032;-62
2022/03/11 12:51:09;;;;;;;5.75;5.13;;;-0.10;58.20;;;;;;5081460;28;20093;-63